Briefing drone pour La grand-croix

Rechercher une autre localisation

Conditions de vol :


Nous sommes le : Dimanche 04 décembre 2022
Il est 18:38 UTC (19:38 LT)

Lever de soleil : 06:38 UTC (07:38 LT)
Coucher de soleil : 16:25 UTC (17:25 LT)

Météo

L'essentiel des conditions de vol

VIGILANCE MÉTÉO FRANCE - Loire (42)
Vigilance Jaune : Neige-verglas
METAR de LFMH
LFMH 041830Z AUTO VRB02KT 9999 SCT034 BKN042 OVC056 03/02 Q1012

Date d'émission: 04/12/2022
Heure d'émission: 18:30 UTC
Vent: Variable 2 KT (4 km/h)
Visibilité horizontale: > 10 km
Plafond :
- Nuages épars à 3400ft (1036m)
- Nuages morcelés à 4200ft (1280m)
- Couvert à 5600ft (1707m)
Température: 3 °C
Point de rosée: 2 °C
Humidité: 93%
Pression (QNH): 1012 hPa
TAF de LFMH
LFMH 161901Z 1619/1712 CNL

Conditions prévues :

Heure d'émission : Bulletin éffectué le 16 à 19:00 UTC
Prévision : Valide du 16 a 19:00 UTC au 17 a 12:00 UTC
Nuages : à 0ft (0 m)
WEBCAM POUR LA GRAND-CROIX

Réglementation

Voler en sécurité

CARTES AERONAUTIQUE 1/500.000
CARTE AZBA (Reseau basse altitude)
CARTES VAC (LFMH)
SUP AIP




Chargement des AIP...
NOTAM (LA GRAND-CROIX + Terrain à proximité / FIR )




Chargement des NOTAMS...
CONTACT PREFECTURE 42


Avertissement : Les données mises à disposition sont indicatives. Oxygène Drone ne pourra être tenu responsable de dégâts causés aux biens et aux personnes.